createdAt,value
2018-10-03T00:03:01.444Z,12.10
2018-10-03T00:08:05.174Z,12.10
2018-10-03T00:13:08.919Z,12.10
2018-10-03T00:18:12.656Z,12.00
2018-10-03T00:23:16.471Z,11.90
2018-10-03T00:28:20.128Z,11.90
2018-10-03T00:33:23.860Z,11.90
2018-10-03T00:38:27.595Z,11.90
2018-10-03T00:43:31.315Z,11.90
2018-10-03T00:48:35.088Z,11.90
2018-10-03T00:53:38.827Z,11.90
2018-10-03T00:58:42.562Z,11.90
2018-10-03T01:03:46.320Z,11.90
2018-10-03T01:08:50.165Z,11.90
2018-10-03T01:13:53.889Z,11.90
2018-10-03T01:18:57.631Z,11.80
2018-10-03T01:24:01.336Z,11.90
2018-10-03T01:29:05.104Z,11.90
2018-10-03T01:34:08.820Z,11.90
2018-10-03T01:39:12.576Z,12.00
2018-10-03T01:44:16.295Z,11.90
2018-10-03T01:49:20.012Z,11.90
2018-10-03T01:54:23.748Z,11.90
2018-10-03T01:59:27.455Z,11.80
2018-10-03T02:04:31.191Z,11.70
2018-10-03T02:09:34.920Z,11.70
2018-10-03T02:14:38.677Z,11.60
2018-10-03T02:19:42.379Z,11.60
2018-10-03T02:24:46.084Z,11.60
2018-10-03T02:29:49.799Z,11.60
2018-10-03T02:34:53.528Z,11.50
2018-10-03T02:39:57.263Z,11.50
2018-10-03T02:45:00.978Z,11.50
2018-10-03T02:50:04.700Z,11.50
2018-10-03T02:55:08.440Z,11.50
2018-10-03T03:00:12.432Z,11.50
2018-10-03T03:05:16.132Z,11.50
2018-10-03T03:10:19.850Z,11.60
2018-10-03T03:15:23.567Z,11.60
2018-10-03T03:20:27.292Z,11.60
2018-10-03T03:25:31.007Z,11.60
2018-10-03T03:30:34.716Z,11.70
2018-10-03T03:35:38.486Z,11.70
2018-10-03T03:40:42.264Z,11.80
2018-10-03T03:45:45.983Z,11.90
2018-10-03T03:50:49.744Z,11.90
2018-10-03T03:55:53.467Z,11.80
2018-10-03T04:00:57.252Z,11.70
2018-10-03T04:06:00.979Z,11.70
2018-10-03T04:11:04.736Z,11.80
2018-10-03T04:16:08.471Z,11.70
2018-10-03T04:21:12.218Z,11.80
2018-10-03T04:26:15.936Z,11.80
2018-10-03T04:31:19.639Z,11.80
2018-10-03T04:36:23.647Z,11.80
2018-10-03T04:41:27.367Z,11.80
2018-10-03T04:46:31.103Z,11.70
2018-10-03T04:51:34.823Z,11.80
2018-10-03T04:56:38.564Z,11.80
2018-10-03T05:01:42.300Z,11.70
2018-10-03T05:06:46.061Z,11.70
2018-10-03T05:11:49.776Z,11.60
2018-10-03T05:16:53.480Z,11.60
2018-10-03T05:21:57.182Z,11.60
2018-10-03T05:27:00.936Z,11.60
2018-10-03T05:32:04.656Z,11.60
2018-10-03T05:37:08.389Z,11.70
2018-10-03T05:42:12.191Z,11.70
2018-10-03T05:47:16.093Z,11.70
2018-10-03T05:52:19.800Z,11.70
2018-10-03T05:57:23.529Z,11.70
2018-10-03T06:02:27.267Z,11.70
2018-10-03T06:07:31.003Z,11.70
2018-10-03T06:12:34.869Z,11.70
2018-10-03T06:17:38.587Z,11.80
2018-10-03T06:22:42.323Z,11.80
2018-10-03T06:27:46.075Z,11.80
2018-10-03T06:32:49.789Z,11.80
2018-10-03T06:37:53.504Z,11.80
2018-10-03T06:42:57.251Z,12.00
2018-10-03T06:48:01.968Z,12.10
2018-10-03T06:53:05.687Z,12.10
2018-10-03T06:58:09.452Z,12.10
2018-10-03T07:03:13.203Z,12.10
2018-10-03T07:08:16.948Z,12.20
2018-10-03T07:13:20.688Z,12.20
2018-10-03T07:18:24.414Z,12.30
2018-10-03T07:23:28.139Z,12.40
2018-10-03T07:28:31.871Z,12.40
2018-10-03T07:33:35.599Z,12.40
2018-10-03T07:38:39.347Z,12.50
2018-10-03T07:43:43.644Z,12.50
2018-10-03T07:48:47.513Z,12.60
2018-10-03T07:53:51.231Z,12.60
2018-10-03T07:58:54.982Z,12.70
2018-10-03T08:03:58.672Z,12.80
2018-10-03T08:09:02.480Z,12.80
2018-10-03T08:14:06.212Z,12.90
2018-10-03T08:19:09.939Z,13.00
2018-10-03T08:24:13.685Z,13.10
2018-10-03T08:29:17.439Z,13.10
2018-10-03T08:34:21.281Z,13.10
2018-10-03T08:39:25.029Z,13.20
2018-10-03T08:44:28.732Z,13.20
2018-10-03T08:49:32.439Z,13.30
2018-10-03T08:54:36.227Z,13.40
2018-10-03T08:59:39.953Z,13.50
2018-10-03T09:04:43.655Z,13.50
2018-10-03T09:09:47.371Z,13.70
2018-10-03T09:14:51.112Z,13.80
2018-10-03T09:19:54.855Z,13.90
2018-10-03T09:24:58.586Z,14.00
2018-10-03T09:30:02.432Z,14.10
2018-10-03T09:35:06.266Z,14.20
2018-10-03T09:40:10.027Z,14.30
2018-10-03T09:45:13.764Z,14.40
2018-10-03T09:50:17.493Z,14.50
2018-10-03T09:55:21.332Z,14.70
2018-10-03T10:00:30.755Z,14.80
2018-10-03T10:05:34.420Z,14.70
2018-10-03T10:10:38.255Z,14.80
2018-10-03T10:15:42.059Z,14.80
2018-10-03T10:20:45.900Z,14.90
2018-10-03T10:25:49.597Z,15.00
2018-10-03T10:30:53.316Z,15.00
2018-10-03T10:35:57.047Z,15.10
2018-10-03T10:41:00.815Z,15.00
2018-10-03T10:46:04.471Z,15.10
2018-10-03T10:51:14.719Z,15.20
2018-10-03T10:56:18.467Z,15.30
2018-10-03T11:01:22.192Z,15.40
2018-10-03T11:06:25.985Z,15.40
2018-10-03T11:11:29.654Z,15.50
2018-10-03T11:16:33.383Z,15.60
2018-10-03T11:21:38.333Z,15.80
2018-10-03T11:26:42.068Z,15.90
2018-10-03T11:31:45.791Z,15.90
2018-10-03T11:36:49.519Z,15.90
2018-10-03T11:41:53.256Z,15.90
2018-10-03T11:46:56.983Z,16.00
2018-10-03T11:52:00.697Z,16.00
2018-10-03T11:57:04.426Z,16.10
2018-10-03T12:02:08.147Z,16.00
2018-10-03T12:07:11.892Z,15.90
2018-10-03T12:12:15.647Z,15.80
2018-10-03T12:17:19.366Z,15.80
2018-10-03T12:22:23.118Z,15.80
2018-10-03T12:27:26.860Z,15.80
2018-10-03T12:32:30.575Z,15.80
2018-10-03T12:37:34.275Z,15.80
2018-10-03T12:42:38.055Z,15.70
2018-10-03T12:47:41.830Z,15.70
2018-10-03T12:52:45.555Z,15.70
2018-10-03T12:57:49.239Z,15.70
2018-10-03T13:02:53.055Z,15.70
2018-10-03T13:07:56.887Z,15.70
2018-10-03T13:13:00.827Z,15.80
2018-10-03T13:18:04.544Z,15.90
2018-10-03T13:23:08.311Z,15.90
2018-10-03T13:28:12.140Z,15.90
2018-10-03T13:33:16.032Z,15.80
2018-10-03T13:38:19.811Z,15.70
2018-10-03T13:43:23.531Z,15.70
2018-10-03T13:48:27.243Z,15.70
2018-10-03T13:53:30.944Z,15.70
2018-10-03T13:58:34.666Z,15.70
2018-10-03T14:03:38.379Z,15.80
2018-10-03T14:08:42.107Z,15.90
2018-10-03T14:13:46.420Z,16.10
2018-10-03T14:18:50.140Z,16.10
2018-10-03T14:23:53.892Z,16.10
2018-10-03T14:28:57.624Z,16.10
2018-10-03T14:34:01.372Z,16.00
2018-10-03T14:39:06.468Z,15.80
2018-10-03T14:44:10.219Z,15.70
2018-10-03T14:49:13.948Z,15.60
2018-10-03T14:54:17.696Z,15.40
2018-10-03T14:59:21.560Z,15.40
2018-10-03T15:04:25.439Z,15.40
2018-10-03T15:09:29.179Z,15.30
2018-10-03T15:14:32.910Z,15.30
2018-10-03T15:19:36.619Z,15.20
2018-10-03T15:24:40.369Z,15.10
2018-10-03T15:29:44.139Z,15.10
2018-10-03T15:34:47.935Z,15.00
2018-10-03T15:39:51.751Z,15.00
2018-10-03T15:44:55.564Z,15.00
2018-10-03T15:49:59.304Z,15.10
2018-10-03T15:55:03.087Z,15.10
2018-10-03T16:00:07.035Z,15.10
2018-10-03T16:05:10.773Z,15.20
2018-10-03T16:10:14.485Z,15.20
2018-10-03T16:15:18.199Z,15.20
2018-10-03T16:20:21.955Z,15.20
2018-10-03T16:25:25.651Z,15.10
2018-10-03T16:30:29.367Z,15.10
2018-10-03T16:35:33.084Z,15.00
2018-10-03T16:40:36.808Z,15.00
2018-10-03T16:45:40.540Z,14.90
2018-10-03T16:50:44.353Z,14.90
2018-10-03T16:55:48.081Z,14.90
2018-10-03T17:00:51.820Z,14.90
2018-10-03T17:05:55.696Z,14.80
2018-10-03T17:11:00.221Z,14.80
2018-10-03T17:16:03.940Z,14.80
2018-10-03T17:21:07.758Z,14.80
2018-10-03T17:26:11.456Z,14.70
2018-10-03T17:31:15.184Z,14.70
2018-10-03T17:36:19.000Z,14.70
2018-10-03T17:41:22.832Z,14.60
2018-10-03T17:46:26.581Z,14.60
2018-10-03T17:51:30.348Z,14.50
2018-10-03T17:56:34.081Z,14.50
2018-10-03T18:01:46.423Z,14.50
2018-10-03T18:06:50.145Z,14.50
2018-10-03T18:11:53.884Z,14.40
2018-10-03T18:16:57.686Z,14.50
2018-10-03T18:22:01.526Z,14.50
2018-10-03T18:27:05.319Z,14.40
2018-10-03T18:32:09.161Z,14.50
2018-10-03T18:37:12.975Z,14.50
2018-10-03T18:42:16.787Z,14.50
2018-10-03T18:47:20.620Z,14.50
2018-10-03T18:52:24.500Z,14.50
2018-10-03T18:57:28.307Z,14.40
2018-10-03T19:02:32.083Z,14.40
2018-10-03T19:07:35.900Z,14.40
2018-10-03T19:12:40.438Z,14.40
2018-10-03T19:17:44.180Z,14.40
2018-10-03T19:22:47.988Z,14.30
2018-10-03T19:27:51.818Z,14.30
2018-10-03T19:32:55.636Z,14.30
2018-10-03T19:37:59.431Z,14.30
2018-10-03T19:43:03.175Z,14.20
2018-10-03T19:48:07.059Z,14.20
2018-10-03T19:53:10.835Z,14.20
2018-10-03T19:58:14.579Z,14.20
2018-10-03T20:03:18.335Z,14.20
2018-10-03T20:08:22.027Z,14.20
2018-10-03T20:13:25.816Z,14.20
2018-10-03T20:18:29.536Z,14.10
2018-10-03T20:23:33.268Z,14.10
2018-10-03T20:28:37.001Z,14.20
2018-10-03T20:33:40.820Z,14.20
2018-10-03T20:38:44.543Z,14.10
2018-10-03T20:43:48.261Z,14.10
2018-10-03T20:48:51.995Z,14.10
2018-10-03T20:53:55.731Z,14.10
2018-10-03T20:58:59.500Z,14.10
2018-10-03T21:04:03.235Z,14.10
2018-10-03T21:09:07.804Z,14.10
2018-10-03T21:14:11.539Z,14.10
2018-10-03T21:19:15.270Z,14.10
2018-10-03T21:24:18.997Z,14.10
2018-10-03T21:29:22.711Z,14.10
2018-10-03T21:34:26.447Z,14.10
2018-10-03T21:39:30.207Z,14.10
2018-10-03T21:44:34.036Z,14.10
2018-10-03T21:49:37.769Z,14.10
2018-10-03T21:54:41.494Z,14.10
2018-10-03T21:59:45.227Z,14.10
2018-10-03T22:04:48.976Z,14.10
2018-10-03T22:09:53.576Z,14.10
2018-10-03T22:14:57.372Z,14.10
2018-10-03T22:20:01.112Z,14.10
2018-10-03T22:25:04.852Z,14.10
2018-10-03T22:30:08.568Z,14.00
2018-10-03T22:35:12.284Z,14.00
2018-10-03T22:40:16.003Z,14.00
2018-10-03T22:45:19.764Z,14.00
2018-10-03T22:50:23.523Z,14.00
2018-10-03T22:55:27.351Z,14.00
2018-10-03T23:00:31.088Z,14.10
2018-10-03T23:05:34.895Z,14.00
2018-10-03T23:10:38.630Z,14.00
2018-10-03T23:15:42.387Z,14.00
2018-10-03T23:20:46.118Z,14.00
2018-10-03T23:25:49.841Z,13.90
2018-10-03T23:30:53.583Z,13.90
2018-10-03T23:35:57.310Z,13.80
2018-10-03T23:41:01.040Z,13.70
2018-10-03T23:46:04.776Z,13.70
2018-10-03T23:51:08.507Z,13.60
2018-10-03T23:56:12.220Z,13.60
